Time;durP1;ratioP1;P1;durP2;ratioP2;P2;SDS_P1;SDS_P2;PMS_P1;PMS_P2;Temp;Humidity;BMP_temperature;BMP_pressure;BME280_temperature;BME280_humidity;BME280_pressure;Samples;Min_cycle;Max_cycle;Signal;HPM_P1;HPM_P2
2022/10/01 00:02:08;;;;;;;9.33;8.30;;;;;;;6.74;100.00;96795.75;4986056;28;21850;-60
2022/10/01 00:04:37;;;;;;;8.67;7.97;;;;;;;6.81;100.00;96792.25;5027106;28;20207;-61
2022/10/01 00:07:09;;;;;;;9.90;8.60;;;;;;;6.89;100.00;96798.50;5025471;28;20231;-62
2022/10/01 00:09:38;;;;;;;10.53;7.20;;;;;;;6.90;100.00;96790.41;5018134;28;20211;-61
2022/10/01 00:12:07;;;;;;;7.40;6.80;;;;;;;6.90;100.00;96794.88;5024630;28;20262;-62
2022/10/01 00:14:37;;;;;;;8.23;7.43;;;;;;;6.88;100.00;96784.50;5024062;28;20212;-62
2022/10/01 00:17:05;;;;;;;7.70;6.97;;;;;;;6.96;100.00;96788.91;5028565;28;20235;-63
2022/10/01 00:19:33;;;;;;;18.73;16.83;;;;;;;6.99;100.00;96787.75;4981681;28;20227;-61
2022/10/01 00:22:01;;;;;;;15.90;14.40;;;;;;;7.02;100.00;96788.22;5022946;28;20207;-66
2022/10/01 00:24:29;;;;;;;9.37;8.57;;;;;;;7.03;100.00;96789.88;5017477;28;20250;-62
2022/10/01 00:26:59;;;;;;;7.93;7.23;;;;;;;7.01;100.00;96780.47;5027768;28;20263;-65
2022/10/01 00:29:27;;;;;;;8.87;8.03;;;;;;;7.17;100.00;96798.03;5028821;28;20664;-64
2022/10/01 00:31:55;;;;;;;8.33;7.53;;;;;;;7.22;100.00;96793.09;5027759;28;20207;-65
2022/10/01 00:34:24;;;;;;;8.00;7.20;;;;;;;7.21;100.00;96796.72;4987030;28;20298;-59
2022/10/01 00:36:52;;;;;;;7.77;7.07;;;;;;;7.28;100.00;96799.47;5025585;28;20738;-61
2022/10/01 00:39:20;;;;;;;7.23;6.57;;;;;;;7.32;100.00;96791.06;4987305;28;20209;-64
2022/10/01 00:41:51;;;;;;;7.63;7.03;;;;;;;7.36;100.00;96794.16;5025142;28;20202;-64
2022/10/01 00:44:33;;;;;;;8.07;7.37;;;;;;;7.41;100.00;96783.09;5027901;28;20207;-61
2022/10/01 00:47:11;;;;;;;7.70;7.00;;;;;;;7.47;100.00;96788.50;5028503;28;20284;-56
2022/10/01 00:49:39;;;;;;;8.63;7.73;;;;;;;7.51;100.00;96795.06;4980994;28;20955;-55
2022/10/01 00:52:12;;;;;;;7.57;6.97;;;;;;;7.48;100.00;96791.94;5025505;28;20231;-63
2022/10/01 00:54:43;;;;;;;8.90;7.60;;;;;;;7.44;100.00;96783.59;5013685;28;20204;-61
2022/10/01 00:57:14;;;;;;;7.97;6.90;;;;;;;7.42;100.00;96792.66;5024482;28;20231;-56
2022/10/01 00:59:44;;;;;;;8.73;7.63;;;;;;;7.49;100.00;96793.59;5024297;28;20959;-60
2022/10/01 01:02:12;;;;;;;8.67;7.77;;;;;;;7.43;100.00;96799.56;5028955;28;20208;-63
2022/10/01 01:04:41;;;;;;;7.83;7.23;;;;;;;7.36;100.00;96802.06;4982467;28;20947;-58
2022/10/01 01:07:10;;;;;;;7.60;6.90;;;;;;;7.35;100.00;96793.34;5024707;28;20224;-61
2022/10/01 01:09:41;;;;;;;7.73;6.73;;;;;;;7.32;100.00;96795.50;5009199;28;20208;-62
2022/10/01 01:12:18;;;;;;;7.63;7.03;;;;;;;7.37;100.00;96801.91;5029121;28;20199;-61
2022/10/01 01:14:55;;;;;;;7.77;6.97;;;;;;;7.37;100.00;96801.91;5022658;28;20803;-61
2022/10/01 01:17:25;;;;;;;7.33;6.73;;;;;;;7.22;100.00;96791.28;5025821;28;20220;-63
2022/10/01 01:20:11;;;;;;;7.03;6.40;;;;;;;7.22;100.00;96795.72;5024027;28;20979;-59
2022/10/01 01:22:44;;;;;;;7.80;7.00;;;;;;;7.30;100.00;96800.13;4978327;28;20345;-59
2022/10/01 01:25:16;;;;;;;7.27;6.70;;;;;;;7.27;100.00;96795.19;5027025;28;20215;-59
2022/10/01 01:27:46;;;;;;;6.80;6.13;;;;;;;7.21;100.00;96792.25;5008800;28;20226;-62
2022/10/01 01:30:17;;;;;;;6.47;5.87;;;;;;;7.13;100.00;96792.31;5026669;28;20762;-61
2022/10/01 01:32:49;;;;;;;6.53;6.13;;;;;;;7.03;100.00;96789.88;5022257;28;20931;-62
2022/10/01 01:35:22;;;;;;;6.33;5.90;;;;;;;6.84;100.00;96771.84;5025697;28;20222;-58
2022/10/01 01:37:56;;;;;;;8.43;6.60;;;;;;;6.74;100.00;96785.22;4979482;28;20199;-63
2022/10/01 01:40:25;;;;;;;6.53;6.03;;;;;;;6.70;100.00;96776.81;5025237;28;20196;-59
2022/10/01 01:42:55;;;;;;;6.97;6.37;;;;;;;6.81;100.00;96776.44;5013152;28;20211;-60
2022/10/01 01:45:29;;;;;;;7.23;6.63;;;;;;;6.87;100.00;96777.59;5027592;28;20235;-62
2022/10/01 01:47:59;;;;;;;7.60;6.80;;;;;;;6.95;100.00;96774.91;5023897;28;20409;-63
2022/10/01 01:50:28;;;;;;;7.97;7.27;;;;;;;7.00;100.00;96776.22;5025223;28;20220;-61
2022/10/01 01:52:56;;;;;;;7.23;6.73;;;;;;;6.91;100.00;96773.63;4985050;28;20211;-63
2022/10/01 01:55:27;;;;;;;7.37;6.67;;;;;;;6.88;100.00;96762.63;4974675;28;20682;-61
2022/10/01 01:57:56;;;;;;;7.00;6.50;;;;;;;6.81;100.00;96765.09;5025951;28;20207;-62
2022/10/01 02:00:26;;;;;;;7.43;6.93;;;;;;;6.72;100.00;96771.41;5028510;28;20207;-63
2022/10/01 02:02:56;;;;;;;10.43;7.57;;;;;;;6.68;100.00;96770.09;5020228;28;20208;-65
2022/10/01 02:05:27;;;;;;;9.23;8.43;;;;;;;6.61;100.00;96764.69;5026551;28;20239;-60
2022/10/01 02:08:16;;;;;;;8.40;7.50;;;;;;;6.41;100.00;96758.97;5020083;28;20232;-60
2022/10/01 02:11:04;;;;;;;7.33;6.80;;;;;;;6.30;100.00;96753.09;4982355;28;20218;-62
2022/10/01 02:13:39;;;;;;;7.53;6.93;;;;;;;6.26;100.00;96757.03;5027352;28;20211;-58
2022/10/01 02:16:13;;;;;;;7.20;6.60;;;;;;;6.15;100.00;96758.19;5024657;28;20228;-63
2022/10/01 02:18:47;;;;;;;8.13;7.43;;;;;;;6.10;100.00;96762.31;5026634;28;20203;-62
2022/10/01 02:21:18;;;;;;;8.03;7.23;;;;;;;6.06;100.00;96756.53;5027175;28;20758;-59
2022/10/01 02:23:52;;;;;;;8.30;7.70;;;;;;;5.99;100.00;96758.16;5002574;28;20212;-64
2022/10/01 02:26:21;;;;;;;8.80;8.00;;;;;;;5.91;100.00;96759.00;5021312;28;20231;-59
2022/10/01 02:28:51;;;;;;;8.90;8.10;;;;;;;5.85;100.00;96767.53;5026743;28;20235;-62
2022/10/01 02:31:23;;;;;;;7.73;7.10;;;;;;;5.80;100.00;96771.47;5030949;28;20900;-60
2022/10/01 02:33:54;;;;;;;8.23;7.43;;;;;;;5.75;100.00;96760.63;5030834;28;20200;-63
2022/10/01 02:36:24;;;;;;;9.40;8.20;;;;;;;5.72;100.00;96760.16;5032499;28;20234;-60
2022/10/01 02:38:53;;;;;;;10.50;9.60;;;;;;;5.77;100.00;96757.84;5027100;28;20199;-62
2022/10/01 02:41:26;;;;;;;11.47;10.37;;;;;;;5.70;100.00;96757.69;4991374;28;20215;-54
2022/10/01 02:43:57;;;;;;;11.90;10.73;;;;;;;5.71;100.00;96753.25;5028794;28;20199;-62
2022/10/01 02:46:30;;;;;;;10.77;9.87;;;;;;;5.64;100.00;96755.72;5030392;28;20225;-63
2022/10/01 02:49:35;;;;;;;11.57;10.40;;;;;;;5.60;100.00;96746.50;5011304;28;20448;-65
2022/10/01 02:52:09;;;;;;;9.43;8.63;;;;;;;5.56;100.00;96750.44;5027740;28;20254;-62
2022/10/01 02:54:42;;;;;;;9.87;8.93;;;;;;;5.52;100.00;96751.75;5028519;28;20527;-63
2022/10/01 02:57:26;;;;;;;9.43;8.70;;;;;;;5.52;100.00;96739.44;5002401;28;20228;-61
2022/10/01 02:59:57;;;;;;;10.20;9.30;;;;;;;5.58;100.00;96744.03;5032202;28;20570;-63
2022/10/01 03:02:30;;;;;;;10.53;9.53;;;;;;;5.63;100.00;96746.19;5030457;28;20200;-60
2022/10/01 03:04:59;;;;;;;10.67;9.77;;;;;;;5.67;100.00;96746.66;5030985;28;20215;-62
2022/10/01 03:07:30;;;;;;;11.00;10.00;;;;;;;5.60;100.00;96743.88;5030517;28;20219;-60
2022/10/01 03:09:58;;;;;;;15.90;10.40;;;;;;;5.60;100.00;96747.31;5033469;28;20347;-60
2022/10/01 03:12:26;;;;;;;11.60;10.50;;;;;;;5.54;100.00;96750.59;4986322;28;20203;-62
2022/10/01 03:14:55;;;;;;;11.77;10.77;;;;;;;5.55;100.00;96746.19;5031688;28;20235;-61
2022/10/01 03:17:23;;;;;;;11.10;9.50;;;;;;;5.54;100.00;96736.66;5027377;28;20216;-60
2022/10/01 03:19:53;;;;;;;11.20;10.30;;;;;;;5.61;100.00;96743.69;5029177;28;20289;-56
2022/10/01 03:22:23;;;;;;;11.20;10.30;;;;;;;5.55;100.00;96738.28;4997986;28;20808;-62
2022/10/01 03:24:52;;;;;;;11.63;10.40;;;;;;;5.45;100.00;96728.75;5033528;28;20579;-63
2022/10/01 03:27:21;;;;;;;12.13;10.97;;;;;;;5.53;100.00;96746.31;4986278;28;20224;-58
2022/10/01 03:29:49;;;;;;;12.70;10.97;;;;;;;5.51;100.00;96737.78;5028330;28;20227;-65
2022/10/01 03:32:18;;;;;;;13.60;11.97;;;;;;;5.49;100.00;96745.84;5021931;28;20427;-61
2022/10/01 03:34:46;;;;;;;13.63;12.27;;;;;;;5.58;100.00;96738.78;4995556;28;20211;-58
2022/10/01 03:37:16;;;;;;;12.43;11.30;;;;;;;5.52;100.00;96734.16;5031111;28;20392;-59
2022/10/01 03:39:45;;;;;;;15.23;12.27;;;;;;;5.57;100.00;96734.50;5031045;28;20240;-59
2022/10/01 03:42:14;;;;;;;25.17;12.50;;;;;;;5.53;100.00;96735.81;4975294;28;21377;-59
2022/10/01 03:44:42;;;;;;;21.93;12.20;;;;;;;5.52;100.00;96728.13;5030093;28;20211;-60
2022/10/01 03:47:11;;;;;;;20.30;11.70;;;;;;;5.47;100.00;96723.34;5028765;28;20223;-63
2022/10/01 03:49:39;;;;;;;18.97;11.53;;;;;;;5.41;100.00;96719.53;4999220;28;20230;-58
2022/10/01 03:52:07;;;;;;;11.87;10.73;;;;;;;5.38;100.00;96719.88;5026457;28;20295;-60
2022/10/01 03:54:38;;;;;;;13.43;12.27;;;;;;;5.45;100.00;96714.78;4996627;28;20661;-57
2022/10/01 03:57:06;;;;;;;14.23;12.27;;;;;;;5.49;100.00;96718.75;4975461;28;21402;-53
2022/10/01 03:59:35;;;;;;;13.67;12.43;;;;;;;5.50;100.00;96713.34;5009710;28;20226;-58
2022/10/01 04:02:03;;;;;;;15.17;13.73;;;;;;;5.49;100.00;96719.56;4974285;28;20212;-62
2022/10/01 04:04:31;;;;;;;13.90;12.70;;;;;;;5.49;100.00;96714.31;5026461;28;20257;-57
2022/10/01 04:06:59;;;;;;;15.97;14.57;;;;;;;5.49;100.00;96716.94;4993407;28;20263;-61
2022/10/01 04:09:28;;;;;;;16.43;13.63;;;;;;;5.53;100.00;96714.00;5021996;28;20449;-61
2022/10/01 04:11:58;;;;;;;16.07;14.60;;;;;;;5.42;100.00;96708.03;5004477;28;20318;-61
2022/10/01 04:14:26;;;;;;;17.40;15.67;;;;;;;5.43;100.00;96711.50;5028410;28;20666;-54
2022/10/01 04:16:54;;;;;;;16.87;15.07;;;;;;;5.38;100.00;96700.66;5032348;28;20233;-61
2022/10/01 04:19:22;;;;;;;18.00;16.10;;;;;;;5.38;100.00;96706.72;4965851;28;20216;-57
2022/10/01 04:21:50;;;;;;;18.67;16.67;;;;;;;5.37;100.00;96707.72;5028655;28;20238;-50
2022/10/01 04:24:19;;;;;;;19.07;17.13;;;;;;;5.41;100.00;96708.22;4993737;28;20520;-55
2022/10/01 04:26:47;;;;;;;22.73;17.40;;;;;;;5.47;100.00;96716.25;5004387;28;20308;-55
2022/10/01 04:29:17;;;;;;;21.13;18.83;;;;;;;5.45;100.00;96709.53;5028572;28;20234;-56
2022/10/01 04:31:45;;;;;;;21.90;18.57;;;;;;;5.41;100.00;96700.34;5029684;28;20200;-54
2022/10/01 04:34:13;;;;;;;23.23;19.23;;;;;;;5.48;100.00;96699.50;4959142;28;20223;-64
2022/10/01 04:36:42;;;;;;;27.93;22.53;;;;;;;5.53;100.00;96699.03;5020161;28;20238;-62
2022/10/01 04:39:10;;;;;;;26.00;21.23;;;;;;;5.50;100.00;96699.34;5025989;28;20279;-61
2022/10/01 04:41:38;;;;;;;24.93;21.87;;;;;;;5.51;100.00;96695.75;5030874;28;20714;-64
2022/10/01 04:44:07;;;;;;;25.20;21.77;;;;;;;5.48;100.00;96686.38;4969733;28;20206;-60
2022/10/01 04:46:37;;;;;;;29.30;24.20;;;;;;;5.44;100.00;96686.88;4994741;28;20902;-56
2022/10/01 04:49:05;;;;;;;30.00;23.73;;;;;;;5.38;100.00;96687.53;4974512;28;20247;-61
2022/10/01 04:51:33;;;;;;;26.77;22.70;;;;;;;5.38;100.00;96684.91;5004428;28;20568;-58
2022/10/01 04:54:02;;;;;;;28.43;22.47;;;;;;;5.42;100.00;96694.09;4991761;28;20227;-61
2022/10/01 04:56:31;;;;;;;32.03;23.90;;;;;;;5.44;100.00;96692.94;5024242;28;20358;-61
2022/10/01 04:58:59;;;;;;;37.73;25.20;;;;;;;5.60;100.00;96700.00;5004853;28;20274;-56
2022/10/01 05:01:27;;;;;;;34.90;25.53;;;;;;;5.63;100.00;96689.16;5025957;28;20214;-63
2022/10/01 05:03:57;;;;;;;27.70;23.83;;;;;;;5.66;100.00;96693.28;4978571;28;20257;-60
2022/10/01 05:06:26;;;;;;;33.80;26.67;;;;;;;5.65;100.00;96691.63;4979553;28;20722;-62
2022/10/01 05:08:54;;;;;;;46.70;33.40;;;;;;;5.82;100.00;96707.38;4991746;28;20819;-60
2022/10/01 05:11:23;;;;;;;44.77;30.90;;;;;;;5.88;100.00;96710.19;5027921;28;20699;-61
2022/10/01 05:13:51;;;;;;;42.33;30.80;;;;;;;5.96;100.00;96706.75;4999636;28;20238;-62
2022/10/01 05:16:19;;;;;;;42.63;28.20;;;;;;;6.06;100.00;96714.47;5026735;28;20416;-61
2022/10/01 05:18:48;;;;;;;41.43;28.20;;;;;;;6.14;100.00;96718.91;4999170;28;20204;-63
2022/10/01 05:21:18;;;;;;;46.87;32.13;;;;;;;6.20;100.00;96718.22;4989520;28;21090;-60
2022/10/01 05:23:46;;;;;;;39.97;27.87;;;;;;;6.20;100.00;96713.78;5025837;28;20666;-63
2022/10/01 05:26:15;;;;;;;44.73;30.60;;;;;;;6.29;100.00;96714.59;5000238;28;20826;-61
2022/10/01 05:28:44;;;;;;;45.70;29.67;;;;;;;6.18;100.00;96702.63;5022580;28;20207;-65
2022/10/01 05:31:13;;;;;;;46.60;30.93;;;;;;;6.33;100.00;96713.28;5013582;28;21126;-65
2022/10/01 05:33:41;;;;;;;40.13;28.37;;;;;;;6.41;100.00;96715.03;5031887;28;20211;-61
2022/10/01 05:36:09;;;;;;;42.43;29.57;;;;;;;6.44;100.00;96712.09;4971277;28;20324;-60
2022/10/01 05:38:40;;;;;;;41.27;29.40;;;;;;;6.45;100.00;96703.22;5024338;28;20204;-63
2022/10/01 05:41:09;;;;;;;40.77;29.63;;;;;;;6.51;100.00;96699.06;5006675;28;20856;-60
2022/10/01 05:43:37;;;;;;;48.33;34.85;;;;;;;6.57;100.00;96708.91;4993442;28;20546;-64
2022/10/01 05:46:06;;;;;;;40.57;29.37;;;;;;;6.64;100.00;96709.06;4995479;28;21004;-60
2022/10/01 05:48:35;;;;;;;42.47;29.27;;;;;;;6.68;100.00;96710.34;5025301;28;20313;-62
2022/10/01 05:51:05;;;;;;;41.37;31.03;;;;;;;6.67;100.00;96708.72;4953117;28;22468;-59
2022/10/01 05:53:34;;;;;;;42.57;30.97;;;;;;;6.77;100.00;96729.56;4994946;28;20203;-64
2022/10/01 05:56:04;;;;;;;38.00;28.70;;;;;;;6.84;100.00;96735.00;5019814;28;20330;-60
2022/10/01 05:58:32;;;;;;;41.33;30.10;;;;;;;6.94;100.00;96731.13;5006179;28;20702;-62
2022/10/01 06:01:01;;;;;;;37.73;27.73;;;;;;;6.95;100.00;96727.50;4997419;28;20401;-61
2022/10/01 06:03:29;;;;;;;39.87;28.87;;;;;;;7.00;100.00;96720.91;5030588;28;20211;-63
2022/10/01 06:05:58;;;;;;;39.03;28.47;;;;;;;7.00;100.00;96720.91;4958391;28;20478;-61
2022/10/01 06:08:27;;;;;;;36.27;28.30;;;;;;;7.00;100.00;96726.16;5029312;28;20302;-64
2022/10/01 06:10:59;;;;;;;39.23;28.57;;;;;;;7.09;100.00;96730.41;4948374;28;20316;-59
2022/10/01 06:13:29;;;;;;;33.73;28.30;;;;;;;7.13;100.00;96731.72;5027947;28;20208;-59
2022/10/01 06:15:57;;;;;;;39.30;28.90;;;;;;;7.25;100.00;96713.69;5031889;28;20230;-61
2022/10/01 06:18:26;;;;;;;42.47;29.37;;;;;;;7.22;100.00;96706.94;5002383;28;20325;-63
2022/10/01 06:20:54;;;;;;;32.70;26.97;;;;;;;7.30;100.00;96713.16;5030081;28;20257;-64
2022/10/01 06:23:22;;;;;;;37.73;28.40;;;;;;;7.32;100.00;96717.28;4997969;28;20234;-61
2022/10/01 06:25:51;;;;;;;37.13;28.53;;;;;;;7.37;100.00;96716.72;4980165;28;20227;-60
2022/10/01 06:28:19;;;;;;;33.60;27.33;;;;;;;7.40;100.00;96713.78;5004566;28;20796;-58
2022/10/01 06:30:49;;;;;;;35.23;28.60;;;;;;;7.48;100.00;96712.88;5028616;28;20230;-61
2022/10/01 06:33:18;;;;;;;34.67;27.27;;;;;;;7.43;100.00;96723.97;5002595;28;20203;-58
2022/10/01 06:35:48;;;;;;;35.83;27.23;;;;;;;7.49;100.00;96725.06;5031202;28;20748;-61
2022/10/01 06:38:18;;;;;;;30.20;26.30;;;;;;;7.50;100.00;96719.63;5025272;28;20288;-59
2022/10/01 06:40:52;;;;;;;32.53;25.90;;;;;;;7.59;100.00;96714.28;4971312;28;20203;-61
2022/10/01 06:43:21;;;;;;;31.97;26.73;;;;;;;7.63;100.00;96708.50;5011664;28;20257;-55
2022/10/01 06:45:54;;;;;;;31.03;26.83;;;;;;;7.67;100.00;96715.03;5027102;28;20435;-58
2022/10/01 06:48:24;;;;;;;32.80;25.80;;;;;;;7.72;100.00;96711.84;5007660;28;20427;-62
2022/10/01 06:50:55;;;;;;;34.90;25.57;;;;;;;7.78;100.00;96710.34;5024970;28;20809;-63
2022/10/01 06:53:24;;;;;;;29.67;25.57;;;;;;;7.86;100.00;96698.91;5029457;28;21080;-61
2022/10/01 06:55:54;;;;;;;30.13;24.10;;;;;;;7.89;100.00;96703.81;4988832;28;20231;-61
2022/10/01 06:58:25;;;;;;;28.77;25.03;;;;;;;8.01;100.00;96702.38;5025924;28;20203;-58
2022/10/01 07:01:02;;;;;;;28.83;24.60;;;;;;;8.06;100.00;96700.03;5030332;28;20223;-62
2022/10/01 07:03:32;;;;;;;26.97;23.60;;;;;;;8.19;100.00;96715.25;5011352;28;20203;-59
2022/10/01 07:06:03;;;;;;;26.60;23.10;;;;;;;8.17;100.00;96690.03;5029862;28;20315;-62
2022/10/01 07:08:33;;;;;;;26.30;23.53;;;;;;;8.25;100.00;96697.88;5031579;28;20269;-61
2022/10/01 07:11:02;;;;;;;29.43;24.70;;;;;;;8.29;100.00;96700.94;4982118;28;20220;-60
2022/10/01 07:13:31;;;;;;;26.37;23.63;;;;;;;8.33;100.00;96696.94;5001545;28;20407;-61
2022/10/01 07:16:02;;;;;;;24.00;20.03;;;;;;;8.41;100.00;96696.88;5032486;28;20227;-60
2022/10/01 07:18:31;;;;;;;22.73;20.30;;;;;;;8.35;100.00;96701.06;4974542;28;20214;-61
2022/10/01 07:20:59;;;;;;;23.67;21.27;;;;;;;8.44;100.00;96691.22;5016704;28;20759;-56
2022/10/01 07:23:27;;;;;;;23.90;21.23;;;;;;;8.54;100.00;96691.00;5010368;28;20295;-58
2022/10/01 07:25:55;;;;;;;23.77;20.37;;;;;;;8.73;100.00;96688.78;4982842;28;20224;-59
2022/10/01 07:28:25;;;;;;;21.57;18.97;;;;;;;8.68;100.00;96684.88;5025608;28;20204;-60
2022/10/01 07:31:05;;;;;;;22.70;20.03;;;;;;;8.78;100.00;96679.31;5029304;28;20247;-64
2022/10/01 07:33:33;;;;;;;22.23;19.87;;;;;;;8.87;100.00;96680.00;5009695;28;20214;-60
2022/10/01 07:36:02;;;;;;;21.00;18.80;;;;;;;8.96;100.00;96688.63;5011721;28;20678;-64
2022/10/01 07:38:32;;;;;;;19.00;16.90;;;;;;;9.07;100.00;96685.50;5010915;28;20215;-61
2022/10/01 07:41:01;;;;;;;23.37;20.97;;;;;;;9.05;100.00;96690.16;4984752;28;20214;-54
2022/10/01 07:43:30;;;;;;;21.27;19.07;;;;;;;9.10;100.00;96687.81;5022771;28;20200;-56
2022/10/01 07:46:00;;;;;;;22.73;19.40;;;;;;;9.42;100.00;96679.56;5030175;28;20238;-54
2022/10/01 07:48:30;;;;;;;21.40;19.40;;;;;;;9.54;100.00;96680.69;5007525;28;20228;-56
2022/10/01 07:50:59;;;;;;;22.50;20.20;;;;;;;9.75;100.00;96678.22;5005148;28;20232;-52
2022/10/01 07:53:27;;;;;;;20.87;18.87;;;;;;;9.82;100.00;96671.97;5005380;28;20205;-53
2022/10/01 07:55:55;;;;;;;21.07;19.07;;;;;;;9.84;100.00;96663.84;5025854;28;20630;-61
2022/10/01 07:58:24;;;;;;;18.57;16.70;;;;;;;10.04;100.00;96669.31;4976269;28;20682;-61
2022/10/01 08:00:57;;;;;;;20.30;18.23;;;;;;;10.25;100.00;96667.59;5026782;28;20721;-60
2022/10/01 08:03:25;;;;;;;19.97;17.93;;;;;;;10.30;100.00;96662.50;5001516;28;20666;-63
2022/10/01 08:05:55;;;;;;;18.43;16.73;;;;;;;10.33;100.00;96658.66;5006704;28;20356;-61
2022/10/01 08:08:23;;;;;;;18.93;17.13;;;;;;;10.28;100.00;96662.72;5025967;28;20643;-64
2022/10/01 08:10:52;;;;;;;16.60;15.10;;;;;;;10.26;100.00;96656.81;5023439;28;20358;-59
2022/10/01 08:13:23;;;;;;;17.83;16.13;;;;;;;10.50;100.00;96652.06;4984182;28;20208;-60
2022/10/01 08:15:53;;;;;;;16.47;14.97;;;;;;;10.63;100.00;96650.50;5024087;28;20382;-56
2022/10/01 08:18:22;;;;;;;16.73;14.90;;;;;;;10.81;100.00;96640.16;4974144;28;20422;-62
2022/10/01 08:20:51;;;;;;;16.07;14.57;;;;;;;10.85;100.00;96643.25;5027830;28;20196;-62
2022/10/01 08:23:21;;;;;;;15.90;14.33;;;;;;;10.82;100.00;96631.19;5003807;28;20520;-60
2022/10/01 08:25:49;;;;;;;16.63;15.13;;;;;;;10.93;100.00;96623.69;5024495;28;20223;-61
2022/10/01 08:28:18;;;;;;;16.13;14.67;;;;;;;10.82;100.00;96628.53;5007263;28;21132;-62
2022/10/01 08:30:46;;;;;;;15.93;14.27;;;;;;;10.88;100.00;96631.41;5025951;28;20204;-60
2022/10/01 08:33:14;;;;;;;15.97;14.47;;;;;;;10.97;100.00;96624.91;4981927;28;21163;-61
2022/10/01 08:35:43;;;;;;;15.37;13.87;;;;;;;10.93;100.00;96628.97;5022971;28;20232;-63
2022/10/01 08:38:12;;;;;;;15.10;13.80;;;;;;;10.76;100.00;96634.66;5024573;28;20214;-62
2022/10/01 08:40:46;;;;;;;14.13;12.83;;;;;;;10.86;100.00;96632.44;5029166;28;20208;-59
2022/10/01 08:43:29;;;;;;;11.63;10.73;;;;;;;10.73;100.00;96624.44;5010689;28;20363;-61
2022/10/01 08:45:59;;;;;;;12.93;11.80;;;;;;;10.67;100.00;96626.03;5027553;28;20754;-61
2022/10/01 08:48:36;;;;;;;11.30;10.40;;;;;;;10.49;100.00;96631.06;5025933;28;20414;-59
2022/10/01 08:51:09;;;;;;;10.57;9.57;;;;;;;10.50;100.00;96638.00;4978102;28;20232;-59
2022/10/01 08:53:40;;;;;;;9.90;8.77;;;;;;;10.39;100.00;96626.91;5026795;28;20591;-54
2022/10/01 08:56:18;;;;;;;11.30;10.30;;;;;;;10.45;100.00;96625.34;5022644;28;20598;-61
2022/10/01 08:58:50;;;;;;;10.87;9.97;;;;;;;10.46;100.00;96628.84;5025090;28;20811;-58
2022/10/01 09:01:21;;;;;;;11.00;9.93;;;;;;;10.46;100.00;96623.53;5004894;28;20229;-59
2022/10/01 09:03:49;;;;;;;10.20;9.30;;;;;;;10.40;100.00;96627.78;5029244;28;20839;-60
2022/10/01 09:06:20;;;;;;;9.97;9.10;;;;;;;10.47;100.00;96623.31;4977200;28;20537;-60
2022/10/01 09:09:02;;;;;;;11.27;10.27;;;;;;;10.42;100.00;96633.69;5022766;28;20586;-62
2022/10/01 09:11:41;;;;;;;10.60;9.07;;;;;;;10.44;100.00;96636.97;5023228;28;20219;-53
2022/10/01 09:14:16;;;;;;;10.90;10.00;;;;;;;10.47;100.00;96639.22;5018987;28;20214;-62
2022/10/01 09:16:51;;;;;;;10.83;9.87;;;;;;;10.49;100.00;96644.31;5007891;28;20231;-64
2022/10/01 09:19:33;;;;;;;10.53;9.70;;;;;;;10.52;100.00;96639.44;5023717;28;20204;-61
2022/10/01 09:22:04;;;;;;;9.80;9.00;;;;;;;10.48;100.00;96638.19;4980203;28;20215;-65
2022/10/01 09:24:42;;;;;;;9.83;8.87;;;;;;;10.39;100.00;96636.69;5027685;28;20206;-63
2022/10/01 09:27:14;;;;;;;10.17;9.27;;;;;;;10.54;100.00;96640.06;5026187;28;20219;-61
2022/10/01 09:29:49;;;;;;;10.17;9.30;;;;;;;10.48;100.00;96642.69;5025200;28;20273;-58
2022/10/01 09:32:22;;;;;;;9.77;8.93;;;;;;;10.49;100.00;96646.97;5003889;28;20750;-62
2022/10/01 09:34:51;;;;;;;8.97;8.13;;;;;;;10.54;100.00;96650.66;5025845;28;20638;-57
2022/10/01 09:37:25;;;;;;;7.63;7.13;;;;;;;10.59;100.00;96652.72;4981216;28;20328;-62
2022/10/01 09:40:04;;;;;;;7.60;7.00;;;;;;;10.71;100.00;96652.97;5026909;28;20215;-62
2022/10/01 09:42:34;;;;;;;7.50;6.93;;;;;;;10.74;100.00;96660.53;5028130;28;20295;-59
2022/10/01 09:45:02;;;;;;;7.50;6.90;;;;;;;10.71;100.00;96647.69;5029262;28;20303;-62
2022/10/01 09:47:33;;;;;;;8.80;8.00;;;;;;;10.75;100.00;96653.38;5010157;28;20299;-63
2022/10/01 09:50:04;;;;;;;8.20;7.43;;;;;;;10.92;100.00;96653.84;5024913;28;20231;-61
2022/10/01 09:52:34;;;;;;;8.00;7.40;;;;;;;11.17;100.00;96632.91;4980407;28;20226;-63
2022/10/01 09:55:05;;;;;;;7.97;7.37;;;;;;;11.18;100.00;96628.44;5025390;28;20526;-63
2022/10/01 09:57:38;;;;;;;8.30;7.70;;;;;;;11.21;100.00;96625.38;5030091;28;20202;-65
2022/10/01 10:00:09;;;;;;;8.33;7.73;;;;;;;11.25;100.00;96627.44;5024157;28;20212;-62
2022/10/01 10:02:40;;;;;;;8.60;8.00;;;;;;;11.29;100.00;96627.81;5012206;28;20214;-65
2022/10/01 10:05:17;;;;;;;8.63;7.90;;;;;;;11.18;100.00;96623.13;5025481;28;20359;-60
2022/10/01 10:07:46;;;;;;;8.60;8.00;;;;;;;11.15;100.00;96627.81;4980847;28;20861;-57
2022/10/01 10:10:19;;;;;;;8.90;8.20;;;;;;;11.18;100.00;96629.25;5026504;28;20220;-59
2022/10/01 10:12:59;;;;;;;7.40;6.80;;;;;;;11.11;100.00;96620.47;5029682;28;20230;-64
2022/10/01 10:15:30;;;;;;;7.57;6.90;;;;;;;10.93;100.00;96624.50;5025554;28;20500;-63
2022/10/01 10:18:05;;;;;;;8.37;7.67;;;;;;;10.85;100.00;96627.34;5011494;28;20219;-61
2022/10/01 10:20:38;;;;;;;7.73;7.03;;;;;;;10.81;100.00;96623.47;5029332;28;20283;-60
2022/10/01 10:23:08;;;;;;;8.77;8.17;;;;;;;10.70;100.00;96599.16;4980118;28;20212;-61
2022/10/01 10:25:36;;;;;;;8.53;7.67;;;;;;;10.65;100.00;96608.72;4974030;28;20504;-60
2022/10/01 10:28:18;;;;;;;9.10;8.20;;;;;;;10.57;100.00;96615.00;5029937;28;20208;-64
2022/10/01 10:30:47;;;;;;;7.83;7.27;;;;;;;10.38;100.00;96596.16;5027744;28;20314;-62
2022/10/01 10:33:16;;;;;;;7.43;6.93;;;;;;;10.33;100.00;96597.78;5026248;28;20220;-60
2022/10/01 10:35:44;;;;;;;8.50;7.60;;;;;;;10.15;100.00;96601.75;5028449;28;20223;-65
2022/10/01 10:38:18;;;;;;;8.30;7.60;;;;;;;10.05;100.00;96586.22;5028739;28;20308;-61
2022/10/01 10:40:47;;;;;;;7.00;6.50;;;;;;;9.94;100.00;96600.00;4985463;28;20889;-59
2022/10/01 10:43:21;;;;;;;7.60;6.90;;;;;;;9.82;100.00;96603.19;5026595;28;20212;-60
2022/10/01 10:45:55;;;;;;;7.57;7.03;;;;;;;9.76;100.00;96598.66;5025466;28;20230;-58
2022/10/01 10:48:25;;;;;;;7.50;6.90;;;;;;;9.73;100.00;96585.84;5026530;28;20236;-60
2022/10/01 10:50:59;;;;;;;7.47;6.87;;;;;;;9.81;100.00;96587.50;5028704;28;20208;-59
2022/10/01 10:53:32;;;;;;;8.13;7.20;;;;;;;9.83;100.00;96578.38;5026225;28;20239;-62
2022/10/01 10:56:02;;;;;;;7.30;6.80;;;;;;;9.83;100.00;96580.19;4980783;28;20317;-56
2022/10/01 10:58:33;;;;;;;7.23;6.50;;;;;;;9.56;100.00;96564.94;5023496;28;20203;-55
2022/10/01 11:01:06;;;;;;;5.97;5.57;;;;;;;9.62;100.00;96578.41;5030795;28;20210;-61
2022/10/01 11:03:36;;;;;;;7.63;6.97;;;;;;;9.54;100.00;96569.63;5024890;28;20250;-57
2022/10/01 11:06:11;;;;;;;7.93;7.30;;;;;;;9.53;100.00;96572.47;5030797;28;20783;-63
2022/10/01 11:08:39;;;;;;;6.53;6.10;;;;;;;9.43;100.00;96564.03;5026710;28;20300;-61
2022/10/01 11:11:31;;;;;;;5.93;5.53;;;;;;;9.50;100.00;96564.91;5026604;28;20342;-63
2022/10/01 11:14:11;;;;;;;5.90;5.50;;;;;;;9.41;100.00;96564.25;5028529;28;20608;-62
2022/10/01 11:16:51;;;;;;;6.93;6.40;;;;;;;9.49;100.00;96566.72;5027568;28;20238;-55
2022/10/01 11:19:37;;;;;;;6.47;5.97;;;;;;;9.52;100.00;96563.69;5030098;28;20435;-63
2022/10/01 11:22:32;;;;;;;5.80;5.40;;;;;;;9.54;100.00;96559.03;5028843;28;20212;-61
2022/10/01 11:25:14;;;;;;;5.90;5.40;;;;;;;9.52;100.00;96555.78;5029022;28;20203;-61
2022/10/01 11:27:49;;;;;;;5.53;5.13;;;;;;;9.44;100.00;96548.00;4980679;28;20296;-60
2022/10/01 11:30:21;;;;;;;4.70;4.40;;;;;;;9.44;100.00;96547.16;5025443;28;20567;-60
2022/10/01 11:32:54;;;;;;;5.83;5.30;;;;;;;9.37;100.00;96558.50;5030492;28;20347;-63
2022/10/01 11:35:33;;;;;;;4.90;4.50;;;;;;;9.32;100.00;96549.53;5025026;28;20234;-62
2022/10/01 11:38:26;;;;;;;5.77;4.97;;;;;;;9.31;100.00;96550.53;5029781;28;20210;-60
2022/10/01 11:40:58;;;;;;;6.10;5.60;;;;;;;9.46;100.00;96537.19;5029635;28;20210;-60